createdAt,value
2023-01-08T00:00:49.740Z,18.57
2023-01-08T00:03:51.631Z,25.67
2023-01-08T00:06:53.327Z,21.60
2023-01-08T00:09:55.145Z,25.43
2023-01-08T00:12:56.737Z,21.37
2023-01-08T00:16:02.562Z,21.77
2023-01-08T00:19:04.172Z,19.17
2023-01-08T00:22:05.769Z,19.57
2023-01-08T00:25:07.686Z,19.13
2023-01-08T00:28:09.524Z,43.97
2023-01-08T00:31:12.197Z,24.47
2023-01-08T00:34:13.821Z,23.60
2023-01-08T00:37:18.927Z,18.87
2023-01-08T00:40:20.530Z,20.07
2023-01-08T00:43:22.155Z,20.27
2023-01-08T00:46:23.872Z,20.00
2023-01-08T00:49:25.460Z,21.27
2023-01-08T00:52:27.016Z,20.63
2023-01-08T00:55:28.655Z,26.87
2023-01-08T00:58:30.778Z,18.90
2023-01-08T01:01:32.800Z,19.43
2023-01-08T01:04:34.559Z,15.07
2023-01-08T01:07:36.436Z,18.83
2023-01-08T01:10:41.052Z,19.07
2023-01-08T01:13:42.663Z,17.90
2023-01-08T01:16:44.367Z,21.73
2023-01-08T01:19:45.973Z,18.00
2023-01-08T01:22:47.635Z,17.00
2023-01-08T01:25:49.293Z,17.27
2023-01-08T01:28:52.234Z,18.00
2023-01-08T01:31:53.850Z,16.27
2023-01-08T01:34:55.442Z,16.73
2023-01-08T01:37:57.016Z,17.77
2023-01-08T01:40:58.867Z,17.87
2023-01-08T01:44:20.451Z,18.83
2023-01-08T01:47:24.985Z,16.67
2023-01-08T01:50:29.148Z,15.13
2023-01-08T01:53:32.537Z,17.33
2023-01-08T01:56:34.185Z,15.90
2023-01-08T01:59:35.923Z,20.77
2023-01-08T02:02:37.650Z,16.37
2023-01-08T02:05:54.728Z,14.60
2023-01-08T02:08:56.555Z,16.43
2023-01-08T02:12:16.583Z,18.50
2023-01-08T02:15:24.168Z,18.40
2023-01-08T02:18:29.451Z,19.13
2023-01-08T02:21:31.129Z,16.90
2023-01-08T02:24:51.420Z,21.33
2023-01-08T02:27:54.797Z,18.47
2023-01-08T02:30:57.030Z,16.27
2023-01-08T02:33:59.020Z,16.07
2023-01-08T02:37:01.179Z,13.87
2023-01-08T02:40:18.952Z,16.73
2023-01-08T02:43:28.663Z,17.37
2023-01-08T02:46:32.502Z,20.70
2023-01-08T02:49:36.988Z,18.60
2023-01-08T02:52:42.410Z,16.03
2023-01-08T02:55:50.034Z,19.50
2023-01-08T02:58:52.957Z,18.00
2023-01-08T03:01:54.736Z,30.10
2023-01-08T03:05:00.059Z,21.63
2023-01-08T03:08:02.021Z,28.67
2023-01-08T03:11:05.465Z,24.03
2023-01-08T03:14:12.365Z,22.87
2023-01-08T03:17:19.695Z,21.67
2023-01-08T03:20:22.950Z,23.00
2023-01-08T03:23:26.734Z,26.73
2023-01-08T03:26:29.510Z,24.53
2023-01-08T03:29:31.824Z,17.77
2023-01-08T03:32:33.973Z,24.90
2023-01-08T03:35:37.558Z,19.87
2023-01-08T03:38:42.733Z,17.47
2023-01-08T03:41:44.523Z,19.03
2023-01-08T03:44:46.265Z,17.40
2023-01-08T03:47:48.807Z,15.73
2023-01-08T03:50:50.475Z,17.40
2023-01-08T03:53:53.470Z,18.07
2023-01-08T03:56:55.087Z,18.43
2023-01-08T03:59:56.911Z,23.30
2023-01-08T04:02:58.592Z,20.37
2023-01-08T04:06:00.654Z,21.63
2023-01-08T04:09:02.435Z,23.87
2023-01-08T04:12:04.204Z,21.17
2023-01-08T04:15:06.165Z,19.93
2023-01-08T04:18:07.839Z,20.70
2023-01-08T04:21:09.518Z,20.70
2023-01-08T04:24:11.858Z,17.50
2023-01-08T04:27:13.523Z,29.23
2023-01-08T04:30:15.137Z,16.70
2023-01-08T04:33:16.998Z,19.97
2023-01-08T04:36:18.643Z,16.40
2023-01-08T04:39:20.217Z,18.43
2023-01-08T04:42:21.881Z,18.73
2023-01-08T04:45:23.542Z,20.17
2023-01-08T04:48:25.296Z,20.23
2023-01-08T04:51:27.010Z,19.73
2023-01-08T04:54:28.559Z,23.47
2023-01-08T04:57:30.161Z,21.87
2023-01-08T05:00:31.844Z,20.70
2023-01-08T05:03:33.552Z,22.43
2023-01-08T05:06:35.249Z,18.97
2023-01-08T05:09:36.932Z,25.03
2023-01-08T05:12:38.615Z,28.33
2023-01-08T05:15:40.309Z,30.37
2023-01-08T05:18:41.975Z,27.87
2023-01-08T05:21:43.555Z,29.47
2023-01-08T05:24:45.131Z,24.20
2023-01-08T05:27:47.205Z,34.63
2023-01-08T05:30:49.469Z,28.47
2023-01-08T05:33:51.613Z,33.27
2023-01-08T05:36:54.657Z,35.93
2023-01-08T05:39:56.368Z,27.57
2023-01-08T05:42:59.590Z,26.77
2023-01-08T05:46:02.022Z,17.83
2023-01-08T05:49:03.639Z,21.47
2023-01-08T05:52:05.247Z,25.80
2023-01-08T05:55:07.000Z,23.97
2023-01-08T05:58:08.687Z,27.23
2023-01-08T06:01:11.648Z,19.53
2023-01-08T06:04:13.521Z,14.60
2023-01-08T06:07:15.366Z,18.77
2023-01-08T06:10:17.083Z,19.40
2023-01-08T06:13:18.628Z,20.87
2023-01-08T06:16:21.196Z,28.37
2023-01-08T06:19:22.933Z,37.40
2023-01-08T06:22:24.603Z,39.30
2023-01-08T06:25:26.346Z,31.17
2023-01-08T06:28:27.992Z,33.17
2023-01-08T06:31:29.719Z,36.00
2023-01-08T06:34:31.518Z,33.47
2023-01-08T06:37:33.109Z,39.37
2023-01-08T06:40:34.786Z,37.33
2023-01-08T06:43:37.156Z,38.60
2023-01-08T06:46:40.485Z,39.83
2023-01-08T06:49:42.105Z,40.13
2023-01-08T06:52:43.776Z,36.73
2023-01-08T06:55:45.375Z,38.77
2023-01-08T06:58:47.069Z,33.27
2023-01-08T07:01:49.081Z,30.03
2023-01-08T07:04:50.906Z,39.23
2023-01-08T07:07:52.606Z,33.83
2023-01-08T07:10:54.232Z,34.20
2023-01-08T07:13:56.018Z,40.53
2023-01-08T07:16:57.642Z,38.10
2023-01-08T07:19:59.286Z,36.83
2023-01-08T07:23:10.888Z,39.50
2023-01-08T07:26:12.505Z,46.53
2023-01-08T07:29:14.082Z,56.43
2023-01-08T07:32:15.731Z,51.83
2023-01-08T07:35:17.431Z,52.67
2023-01-08T07:38:19.171Z,57.50
2023-01-08T07:41:20.824Z,49.93
2023-01-08T07:44:22.424Z,52.80
2023-01-08T07:47:23.991Z,53.07
2023-01-08T07:50:26.292Z,54.50
2023-01-08T07:53:27.938Z,55.00
2023-01-08T07:56:29.556Z,56.20
2023-01-08T07:59:31.185Z,57.60
2023-01-08T08:02:33.903Z,74.60
2023-01-08T08:05:35.650Z,65.67
2023-01-08T08:08:39.439Z,61.00
2023-01-08T08:11:41.870Z,55.33
2023-01-08T08:14:43.502Z,45.40
2023-01-08T08:17:46.324Z,34.70
2023-01-08T08:20:49.448Z,39.80
2023-01-08T08:23:51.072Z,39.60
2023-01-08T08:26:54.322Z,39.20
2023-01-08T08:29:55.900Z,37.83
2023-01-08T08:32:58.990Z,45.33
2023-01-08T08:36:00.641Z,44.50
2023-01-08T08:39:02.287Z,52.80
2023-01-08T08:42:03.927Z,51.17
2023-01-08T08:45:05.912Z,42.00
2023-01-08T08:48:08.264Z,39.50
2023-01-08T08:51:09.962Z,47.90
2023-01-08T08:54:11.726Z,50.03
2023-01-08T08:57:13.333Z,48.83
2023-01-08T09:00:15.343Z,47.00
2023-01-08T09:03:17.116Z,53.27
2023-01-08T09:06:18.845Z,62.83
2023-01-08T09:09:20.478Z,51.60
2023-01-08T09:12:22.126Z,62.83
2023-01-08T09:15:23.741Z,57.27
2023-01-08T09:18:25.354Z,51.37
2023-01-08T09:21:28.834Z,57.30
2023-01-08T09:24:32.428Z,48.20
2023-01-08T09:27:34.078Z,51.73
2023-01-08T09:30:35.781Z,45.80
2023-01-08T09:33:37.582Z,41.10
2023-01-08T09:36:39.257Z,40.20
2023-01-08T09:39:42.586Z,34.13
2023-01-08T09:42:51.815Z,24.13
2023-01-08T09:45:56.106Z,27.43
2023-01-08T09:48:59.610Z,20.07
2023-01-08T09:52:01.186Z,22.43
2023-01-08T09:55:02.995Z,25.33
2023-01-08T09:58:04.862Z,25.50
2023-01-08T10:01:07.152Z,23.33
2023-01-08T10:04:19.784Z,20.47
2023-01-08T10:07:22.915Z,20.40
2023-01-08T10:10:31.770Z,25.77
2023-01-08T10:13:34.539Z,19.63
2023-01-08T10:16:37.990Z,20.90
2023-01-08T10:19:39.641Z,16.90
2023-01-08T10:22:41.545Z,21.67
2023-01-08T10:25:52.740Z,26.27
2023-01-08T10:29:05.701Z,21.43
2023-01-08T10:32:18.097Z,29.80
2023-01-08T10:35:21.247Z,44.63
2023-01-08T10:38:46.290Z,41.67
2023-01-08T10:41:48.752Z,33.70
2023-01-08T10:44:53.432Z,55.03
2023-01-08T10:47:57.174Z,49.63
2023-01-08T10:51:07.015Z,31.80
2023-01-08T10:54:21.175Z,21.53
2023-01-08T10:57:22.809Z,36.40
2023-01-08T11:00:25.854Z,23.60
2023-01-08T11:03:29.255Z,34.63
2023-01-08T11:06:37.465Z,21.13
2023-01-08T11:09:41.448Z,28.47
2023-01-08T11:12:43.178Z,21.83
2023-01-08T11:15:44.904Z,21.90
2023-01-08T11:18:47.970Z,17.63
2023-01-08T11:21:56.836Z,8.00
2023-01-08T11:24:58.511Z,6.60
2023-01-08T11:28:02.370Z,4.07
2023-01-08T11:31:11.849Z,3.07
2023-01-08T11:34:28.897Z,5.10
2023-01-08T11:37:33.743Z,3.23
2023-01-08T11:40:41.592Z,2.80
2023-01-08T11:43:55.264Z,3.47
2023-01-08T11:47:15.881Z,7.47
2023-01-08T11:50:26.738Z,4.77
2023-01-08T11:53:36.711Z,4.03
2023-01-08T11:56:56.769Z,3.80
2023-01-08T12:00:16.962Z,3.00
2023-01-08T12:03:40.742Z,6.90
2023-01-08T12:06:47.914Z,5.53
2023-01-08T12:10:04.493Z,4.70
2023-01-08T12:13:21.308Z,4.40
2023-01-08T12:16:38.929Z,7.17
2023-01-08T12:19:46.876Z,4.90
2023-01-08T12:22:58.190Z,3.90
2023-01-08T12:25:59.856Z,3.80
2023-01-08T12:29:07.478Z,4.10
2023-01-08T12:32:12.194Z,3.67
2023-01-08T12:35:25.441Z,5.00
2023-01-08T12:38:30.433Z,9.17
2023-01-08T12:41:33.870Z,7.90
2023-01-08T12:44:36.921Z,4.00
2023-01-08T12:47:40.182Z,6.40
2023-01-08T12:50:49.496Z,5.07
2023-01-08T12:53:54.272Z,3.73
2023-01-08T12:57:00.433Z,5.67
2023-01-08T13:00:02.135Z,3.37
2023-01-08T13:03:05.240Z,3.93
2023-01-08T13:06:08.326Z,4.67
2023-01-08T13:09:19.851Z,5.30
2023-01-08T13:12:33.981Z,7.23
2023-01-08T13:15:36.098Z,4.93
2023-01-08T13:18:37.980Z,7.77
2023-01-08T13:21:43.237Z,5.40
2023-01-08T13:24:45.074Z,5.13
2023-01-08T13:27:47.055Z,6.80
2023-01-08T13:30:49.977Z,4.23
2023-01-08T13:33:54.573Z,6.10
2023-01-08T13:36:57.382Z,8.23
2023-01-08T13:39:58.970Z,10.07
2023-01-08T13:43:00.719Z,8.10
2023-01-08T13:46:02.362Z,13.63
2023-01-08T13:49:08.372Z,15.27
2023-01-08T13:52:28.821Z,17.90
2023-01-08T13:55:33.335Z,9.80
2023-01-08T13:58:40.865Z,36.97
2023-01-08T14:01:51.668Z,14.40
2023-01-08T14:04:54.007Z,7.63
2023-01-08T14:07:55.932Z,7.73
2023-01-08T14:10:57.593Z,11.30
2023-01-08T14:13:59.312Z,12.33
2023-01-08T14:17:02.885Z,7.10
2023-01-08T14:20:09.067Z,12.07
2023-01-08T14:23:12.244Z,9.10
2023-01-08T14:26:35.694Z,9.00
2023-01-08T14:29:37.450Z,9.37
2023-01-08T14:32:42.897Z,6.30
2023-01-08T14:35:44.806Z,7.17
2023-01-08T14:38:50.842Z,9.43
2023-01-08T14:42:13.286Z,8.07
2023-01-08T14:45:26.770Z,9.43
2023-01-08T14:48:40.478Z,10.77
2023-01-08T14:51:42.193Z,10.00
2023-01-08T14:54:45.719Z,14.10
2023-01-08T14:57:48.673Z,18.30
2023-01-08T15:00:56.227Z,36.17
2023-01-08T15:04:05.501Z,27.00
2023-01-08T15:07:22.301Z,25.80
2023-01-08T15:10:27.013Z,21.67
2023-01-08T15:13:35.743Z,51.00
2023-01-08T15:16:42.735Z,35.77
2023-01-08T15:19:50.181Z,42.53
2023-01-08T15:22:51.900Z,52.93
2023-01-08T15:25:54.168Z,50.77
2023-01-08T15:29:04.417Z,56.43
2023-01-08T15:32:09.143Z,52.03
2023-01-08T15:35:15.607Z,82.63
2023-01-08T15:38:18.034Z,68.33
2023-01-08T15:41:39.333Z,56.00
2023-01-08T15:44:40.962Z,91.07
2023-01-08T15:47:42.691Z,71.43
2023-01-08T15:50:44.575Z,88.03
2023-01-08T15:53:49.376Z,81.03
2023-01-08T15:56:51.239Z,96.70
2023-01-08T15:59:52.948Z,106.13
2023-01-08T16:02:55.581Z,114.30
2023-01-08T16:05:57.238Z,102.27
2023-01-08T16:09:00.458Z,115.83
2023-01-08T16:12:02.268Z,129.97
2023-01-08T16:15:04.316Z,93.33
2023-01-08T16:18:05.992Z,108.87
2023-01-08T16:21:08.168Z,99.37
2023-01-08T16:24:12.380Z,132.47
2023-01-08T16:27:13.989Z,99.10
2023-01-08T16:30:15.937Z,100.77
2023-01-08T16:33:17.603Z,107.17
2023-01-08T16:36:19.343Z,105.93
2023-01-08T16:39:22.060Z,121.60
2023-01-08T16:42:26.031Z,134.23
2023-01-08T16:45:27.765Z,123.90
2023-01-08T16:48:29.482Z,136.07
2023-01-08T16:51:31.116Z,158.10
2023-01-08T16:54:33.657Z,133.53
2023-01-08T16:57:35.387Z,135.10
2023-01-08T17:00:37.785Z,157.33
2023-01-08T17:03:39.498Z,155.90
2023-01-08T17:06:41.248Z,140.90
2023-01-08T17:09:43.000Z,129.87
2023-01-08T17:12:46.379Z,157.20
2023-01-08T17:15:48.591Z,147.73
2023-01-08T17:18:52.923Z,163.33
2023-01-08T17:21:56.778Z,209.10
2023-01-08T17:24:58.665Z,130.37
2023-01-08T17:28:00.273Z,183.30
2023-01-08T17:31:09.501Z,119.60
2023-01-08T17:34:12.489Z,133.73
2023-01-08T17:37:14.151Z,116.57
2023-01-08T17:40:15.899Z,133.80
2023-01-08T17:43:17.592Z,129.87
2023-01-08T17:46:19.345Z,107.57
2023-01-08T17:49:21.140Z,105.43
2023-01-08T17:52:24.105Z,112.13
2023-01-08T17:55:28.998Z,115.73
2023-01-08T17:58:30.581Z,99.20
2023-01-08T18:01:34.884Z,98.50
2023-01-08T18:04:36.725Z,104.67
2023-01-08T18:07:42.423Z,102.07
2023-01-08T18:10:43.988Z,101.37
2023-01-08T18:13:48.076Z,103.60
2023-01-08T18:16:50.043Z,132.00
2023-01-08T18:19:51.610Z,122.63
2023-01-08T18:22:54.286Z,122.90
2023-01-08T18:25:56.081Z,115.20
2023-01-08T18:28:57.762Z,117.10
2023-01-08T18:31:59.883Z,109.83
2023-01-08T18:35:03.743Z,108.67
2023-01-08T18:38:05.396Z,116.90
2023-01-08T18:41:09.275Z,96.30
2023-01-08T18:44:11.011Z,107.20
2023-01-08T18:47:15.862Z,96.83
2023-01-08T18:50:17.514Z,100.00
2023-01-08T18:53:19.132Z,91.37
2023-01-08T18:56:22.228Z,99.33
2023-01-08T18:59:24.562Z,92.33
2023-01-08T19:02:27.890Z,89.73
2023-01-08T19:05:29.832Z,89.53
2023-01-08T19:08:31.427Z,91.53
2023-01-08T19:11:33.079Z,93.87
2023-01-08T19:14:35.105Z,94.77
2023-01-08T19:17:36.699Z,91.53
2023-01-08T19:20:46.334Z,92.30
2023-01-08T19:23:48.277Z,97.73
2023-01-08T19:26:50.303Z,90.30
2023-01-08T19:29:52.095Z,68.40
2023-01-08T19:32:53.748Z,55.83
2023-01-08T19:35:55.386Z,46.60
2023-01-08T19:38:57.508Z,18.60
2023-01-08T19:42:17.722Z,25.93
2023-01-08T19:45:19.380Z,18.97
2023-01-08T19:48:21.218Z,17.97
2023-01-08T19:51:22.972Z,21.43
2023-01-08T19:54:25.940Z,16.63
2023-01-08T19:57:27.973Z,20.73
2023-01-08T20:00:29.724Z,38.13
2023-01-08T20:03:31.300Z,24.70
2023-01-08T20:06:33.755Z,22.60
2023-01-08T20:09:35.445Z,21.13
2023-01-08T20:12:37.832Z,22.43
2023-01-08T20:15:39.523Z,22.20
2023-01-08T20:18:41.903Z,18.90
2023-01-08T20:21:43.505Z,20.67
2023-01-08T20:24:45.151Z,18.40
2023-01-08T20:27:46.741Z,17.60
2023-01-08T20:30:48.728Z,20.00
2023-01-08T20:33:50.365Z,15.70
2023-01-08T20:36:52.321Z,22.53
2023-01-08T20:39:54.040Z,23.37
2023-01-08T20:42:55.699Z,25.07
2023-01-08T20:45:57.362Z,19.97
2023-01-08T20:49:01.207Z,19.20
2023-01-08T20:52:02.882Z,23.43
2023-01-08T20:55:04.693Z,18.17
2023-01-08T20:58:06.296Z,25.50
2023-01-08T21:01:18.588Z,19.90
2023-01-08T21:04:20.385Z,22.83
2023-01-08T21:07:22.211Z,22.90
2023-01-08T21:10:23.943Z,23.63
2023-01-08T21:13:25.832Z,17.80
2023-01-08T21:16:28.780Z,22.20
2023-01-08T21:19:30.497Z,25.43
2023-01-08T21:22:32.129Z,29.60
2023-01-08T21:25:35.108Z,27.53
2023-01-08T21:28:37.118Z,22.97
2023-01-08T21:31:39.225Z,22.90
2023-01-08T21:34:40.939Z,35.80
2023-01-08T21:37:42.607Z,33.07
2023-01-08T21:40:44.312Z,22.17
2023-01-08T21:44:04.812Z,20.30
2023-01-08T21:47:08.037Z,16.43
2023-01-08T21:50:10.471Z,17.63
2023-01-08T21:53:30.645Z,18.73
2023-01-08T21:56:32.301Z,16.93
2023-01-08T21:59:34.583Z,15.40
2023-01-08T22:02:37.152Z,12.50
2023-01-08T22:05:38.781Z,20.33
2023-01-08T22:08:40.375Z,24.53
2023-01-08T22:11:41.973Z,15.23
2023-01-08T22:14:43.867Z,22.37
2023-01-08T22:17:45.463Z,20.03
2023-01-08T22:20:47.029Z,22.87
2023-01-08T22:23:48.763Z,24.83
2023-01-08T22:26:50.440Z,27.83
2023-01-08T22:29:52.054Z,23.00
2023-01-08T22:32:53.812Z,23.40
2023-01-08T22:35:57.221Z,23.53
2023-01-08T22:38:58.946Z,26.90
2023-01-08T22:42:00.666Z,28.00
2023-01-08T22:45:02.297Z,25.10
2023-01-08T22:48:04.999Z,25.37
2023-01-08T22:51:06.643Z,27.10
2023-01-08T22:54:08.296Z,22.60
2023-01-08T22:57:10.092Z,13.73
2023-01-08T23:00:11.974Z,9.40
2023-01-08T23:03:13.632Z,11.53
2023-01-08T23:06:16.567Z,9.50
2023-01-08T23:09:18.163Z,9.87
2023-01-08T23:12:20.041Z,12.03
2023-01-08T23:15:22.041Z,7.70
2023-01-08T23:18:23.609Z,9.03
2023-01-08T23:21:25.981Z,8.20
2023-01-08T23:24:29.972Z,9.93
2023-01-08T23:27:32.609Z,8.67
2023-01-08T23:30:34.294Z,9.57
2023-01-08T23:33:36.026Z,10.50
2023-01-08T23:36:37.776Z,8.23
2023-01-08T23:39:39.354Z,10.67
2023-01-08T23:42:40.971Z,9.47
2023-01-08T23:45:42.614Z,10.87
2023-01-08T23:48:44.572Z,9.43
2023-01-08T23:51:46.277Z,10.13
2023-01-08T23:54:47.887Z,10.10
2023-01-08T23:57:49.777Z,11.17
